IK5NLA Vaiano IT current weather conditions

sailwx.info

Wind from 024 at 3 knots gusting 3

Air temperature 13.9° C
Dewpoint 3.6° C

Last reported at 2014-Oct-24 22:45 UTC.
Time now 2014-Oct-24 23:17 UTC

Location: N 43°58' E 011°06'.
View on Google Maps.

See reports from other nearby stations

  
Tides and Currents Weather Stations Pressure Air Temp Water Temp Dewpoint Dewpoint Depression Visibility Wind Speed Wind Dir Waves Ship Positions
date/time (UTC)wind fromknots sea level pressurealtimeterstation pressurevisibilityair tempwater tempwave heightnotes
2014-Oct-24 22:45 024 3 gusting 3 13.9
2014-Oct-24 22:35 005 2 gusting 3 13.9
2014-Oct-24 22:25 009 4 gusting 4 13.9
2014-Oct-24 22:15 018 3 gusting 3 13.3
2014-Oct-24 22:05 348 4 gusting 4 13.3
2014-Oct-24 21:45 360 3 gusting 3 13.9
2014-Oct-24 21:35 011 3 gusting 3 13.9
2014-Oct-24 21:25 329 4 gusting 6 13.9
2014-Oct-24 21:05 021 2 gusting 2 13.9
2014-Oct-24 20:55 012 2 gusting 2 13.9
2014-Oct-24 20:45 348 2 gusting 2 14.4
2014-Oct-24 20:35 342 0 gusting 0 14.4
2014-Oct-24 20:25 342 2 gusting 2 14.4
2014-Oct-24 20:15 333 2 gusting 2 15.0
2014-Oct-24 20:05 333 2 gusting 3 15.0
2014-Oct-24 19:55 346 2 gusting 2 14.4
2014-Oct-24 19:46 346 1 gusting 2 14.4
2014-Oct-24 19:25 347 0 gusting 1 15.0
2014-Oct-24 18:55 355 1 gusting 1 15.0
2014-Oct-24 18:46 360 2 gusting 2 15.0
2014-Oct-24 18:35 342 2 gusting 2 15.6
2014-Oct-24 18:15 338 4 gusting 4 15.0
2014-Oct-24 18:05 355 2 gusting 3 15.0
2014-Oct-24 17:55 022 3 gusting 4 15.0
2014-Oct-24 17:46 348 4 gusting 5 14.4
2014-Oct-24 17:35 011 3 gusting 3 15.0
2014-Oct-24 17:25 360 2 gusting 3 15.0
2014-Oct-24 17:15 355 2 gusting 3 15.0
2014-Oct-24 17:05 005 2 gusting 2 15.0
2014-Oct-24 16:55 360 3 gusting 3 15.0
2014-Oct-24 16:45 355 2 gusting 3 15.0
2014-Oct-24 16:35 005 3 gusting 3 15.0
2014-Oct-24 16:25 019 2 gusting 2 15.0
2014-Oct-24 16:15 009 2 gusting 2 15.6
2014-Oct-24 16:05 360 2 gusting 2 15.6
2014-Oct-24 15:55 028 2 gusting 3 15.6
2014-Oct-24 15:25 346 2 gusting 3 16.1
2014-Oct-24 15:15 349 2 gusting 2 16.7
2014-Oct-24 15:05 029 2 gusting 2 17.2
2014-Oct-24 14:55 098 4 gusting 7 18.9
2014-Oct-24 12:06 086 7 gusting 9 18.3
2014-Oct-24 11:56 082 4 gusting 4 18.3
2014-Oct-24 11:36 079 6 gusting 8 18.3
2014-Oct-24 11:26 090 3 gusting 4 18.3
2014-Oct-24 11:16 098 9 gusting 9 18.3
2014-Oct-24 11:06 050 8 gusting 9 18.3
2014-Oct-24 10:56 086 5 gusting 5 18.3
2014-Oct-24 10:46 047 6 gusting 11 18.3
2014-Oct-24 10:36 076 9 gusting 9 18.3
2014-Oct-24 10:26 109 6 gusting 6 18.3
2014-Oct-24 10:16 109 8 gusting 8 18.3
2014-Oct-24 10:06 092 7 gusting 9 18.3
2014-Oct-24 09:56 088 9 gusting 9 17.8
2014-Oct-24 09:46 092 9 gusting 10 17.8
2014-Oct-24 09:05 082 6 gusting 7 17.2
2014-Oct-24 08:55 083 7 gusting 7 16.7
2014-Oct-24 08:45 102 3 gusting 3 16.7
2014-Oct-24 08:35 078 2 gusting 2 16.7
2014-Oct-24 08:25 063 4 gusting 4 16.1
2014-Oct-24 08:15 092 3 gusting 3 16.1
2014-Oct-24 08:05 088 4 gusting 6 16.1
2014-Oct-24 07:55 060 3 gusting 4 15.6
2014-Oct-24 07:45 024 3 gusting 4 15.0
2014-Oct-24 07:35 098 3 gusting 5 15.0
2014-Oct-24 07:25 082 3 gusting 3 14.4
2014-Oct-24 07:15 119 3 gusting 3 14.4
2014-Oct-24 07:05 069 2 gusting 2 15.0
2014-Oct-24 06:55 137 2 gusting 2 14.4
2014-Oct-24 06:35 065 1 gusting 1 13.3
2014-Oct-24 06:25 107 1 gusting 1 12.8
2014-Oct-24 06:15 106 0 gusting 1 12.8
2014-Oct-24 06:05 252 12.8
2014-Oct-24 05:55 204 12.8
2014-Oct-24 05:45 154 13.3
2014-Oct-24 05:35 156 0 gusting 0 13.3
2014-Oct-24 05:25 018 1 gusting 2 13.3
2014-Oct-24 05:05 044 2 gusting 2 13.3
2014-Oct-24 04:55 032 3 gusting 6 13.3
2014-Oct-24 04:45 096 2 gusting 2 13.3
2014-Oct-24 04:35 036 7 gusting 7 13.9
2014-Oct-24 04:15 327 2 gusting 2 12.8
2014-Oct-24 04:05 334 0 gusting 1 12.8
2014-Oct-24 03:45 321 0 gusting 0 12.8
2014-Oct-24 03:35 281 12.8
2014-Oct-24 03:25 326 13.3
2014-Oct-24 03:15 129 0 gusting 0 13.3
2014-Oct-24 03:05 295 1 gusting 1 13.3
2014-Oct-24 02:55 086 1 gusting 1 13.3
2014-Oct-24 02:35 087 3 gusting 3 13.9
2014-Oct-24 02:25 288 2 gusting 2 13.3
2014-Oct-24 02:15 347 1 gusting 1 13.3
2014-Oct-24 02:05 301 1 gusting 2 13.3
2014-Oct-24 01:55 260 2 gusting 2 13.3
2014-Oct-24 01:35 283 0 gusting 1 13.9
2014-Oct-24 01:25 195 0 gusting 1 13.9
2014-Oct-24 01:15 240 2 gusting 2 13.3
2014-Oct-24 01:05 208 2 gusting 2 13.9
2014-Oct-24 00:55 106 13.9
2014-Oct-24 00:45 285 2 gusting 3 13.3
2014-Oct-24 00:35 123 0 gusting 0 13.9
2014-Oct-24 00:25 034 2 gusting 3 13.3
2014-Oct-24 00:15 199 0 gusting 0 13.3
2014-Oct-24 00:05 303 0 gusting 0 13.3
2014-Oct-23 23:55 284 0 gusting 1 13.9
2014-Oct-23 23:45 246 2 gusting 2 13.9
2014-Oct-23 23:35 262 0 gusting 1 13.9
2014-Oct-23 23:25 028 4 gusting 4 13.9
2014-Oct-23 23:05 165 2 gusting 2 13.9
2014-Oct-23 22:55 338 3 gusting 3 13.9
2014-Oct-23 22:45 150 1 gusting 1 14.4
2014-Oct-23 22:25 129 2 gusting 2 14.4
2014-Oct-23 22:15 131 0 gusting 0 13.9
2014-Oct-23 22:05 129 13.9
2014-Oct-23 21:55 144 14.4
2014-Oct-23 21:35 068 3 gusting 5 14.4
2014-Oct-23 21:25 038 14.4
2014-Oct-23 21:15 056 2 gusting 2 14.4
2014-Oct-23 21:05 071 3 gusting 3 14.4
2014-Oct-23 20:55 090 3 gusting 3 14.4
2014-Oct-23 20:45 060 1 gusting 2 14.4
2014-Oct-23 20:35 133 2 gusting 3 14.4
2014-Oct-23 20:25 038 2 gusting 4 14.4
2014-Oct-23 20:15 088 2 gusting 5 14.4
2014-Oct-23 20:05 013 4 gusting 4 14.4
2014-Oct-23 19:55 080 3 gusting 3 14.4
2014-Oct-23 19:45 076 3 gusting 3 14.4
2014-Oct-23 19:25 090 2 gusting 2 14.4
2014-Oct-23 18:55 347 2 gusting 2 13.3
2014-Oct-23 18:45 349 3 gusting 3 13.3
2014-Oct-23 18:25 350 13.9
2014-Oct-23 18:15 340 1 gusting 2 14.4
2014-Oct-23 17:45 009 1 gusting 1 15.0
2014-Oct-23 17:35 355 0 gusting 2 15.0
2014-Oct-23 17:25 111 0 gusting 2 15.0
2014-Oct-23 17:15 038 0 gusting 1 15.0
2014-Oct-23 16:55 033 0 gusting 1 15.0
2014-Oct-23 16:45 032 1 gusting 1 15.0
2014-Oct-23 16:35 071 0 gusting 0 15.6
2014-Oct-23 16:15 033 2 gusting 2 15.6
2014-Oct-23 16:05 030 4 gusting 4 15.6
2014-Oct-23 15:55 064 1 gusting 1 16.1
2014-Oct-23 15:45 087 2 gusting 2 16.1
2014-Oct-23 15:25 085 3 gusting 3 16.1
2014-Oct-23 15:15 084 5 gusting 5 16.1
2014-Oct-23 15:05 082 4 gusting 4 16.1
2014-Oct-23 14:55 082 3 gusting 3 16.7
2014-Oct-23 14:45 088 4 gusting 4 16.7
2014-Oct-23 14:35 094 5 gusting 5 16.7
2014-Oct-23 14:25 033 8 gusting 8 16.7
2014-Oct-23 14:17 086 1 gusting 2 16.7
2014-Oct-23 09:25 122 2 gusting 2 14.4
2014-Oct-23 09:15 199 1 gusting 2 15.0
2014-Oct-23 09:05 128 0 gusting 1 13.9
2014-Oct-23 08:55 193 2 gusting 3 15.0
2014-Oct-23 08:45 180 0 gusting 0 13.9
2014-Oct-23 08:35 218 1 gusting 2 13.9
2014-Oct-23 08:25 119 2 gusting 2 13.9
2014-Oct-23 08:15 182 2 gusting 2 14.4
2014-Oct-23 08:05 196 13.9
2014-Oct-23 07:55 206 1 gusting 2 13.3
2014-Oct-23 07:45 167 0 gusting 0 12.8
2014-Oct-23 07:35 122 1 gusting 2 13.3
2014-Oct-23 07:25 130 0 gusting 0 12.8
2014-Oct-23 07:15 129 12.2
2014-Oct-23 07:05 129 0 gusting 0 11.7
2014-Oct-23 06:55 234 11.7
2014-Oct-23 06:45 337 11.1
2014-Oct-23 06:35 337 10.0
2014-Oct-23 06:25 335 9.4
2014-Oct-23 06:15 342 1 gusting 1 9.4
2014-Oct-23 05:55 331 2 gusting 2 9.4
2014-Oct-23 05:45 339 2 gusting 2 8.9
2014-Oct-23 05:35 340 0 gusting 1 9.4
2014-Oct-23 05:25 334 0 gusting 0 9.4
2014-Oct-23 05:15 349 2 gusting 2 10.0
2014-Oct-23 05:05 350 2 gusting 2 10.0
2014-Oct-23 04:45 340 0 gusting 0 9.4
2014-Oct-23 04:35 330 9.4
2014-Oct-23 04:25 299 0 gusting 0 9.4
2014-Oct-23 04:15 013 1 gusting 2 8.9
2014-Oct-23 04:05 005 8.9
2014-Oct-23 03:55 302 10.6
2014-Oct-23 03:45 303 2 gusting 3 11.1
2014-Oct-23 03:35 331 3 gusting 3 10.6
2014-Oct-23 03:15 138 10.0
2014-Oct-23 03:05 331 0 gusting 0 10.6
2014-Oct-23 02:55 300 1 gusting 2 10.6
2014-Oct-23 02:25 309 2 gusting 2 10.6
2014-Oct-23 02:05 302 1 gusting 1 9.4
2014-Oct-23 01:55 346 2 gusting 2 9.4
2014-Oct-23 01:45 329 3 gusting 3 10.0
2014-Oct-23 01:35 336 2 gusting 2 9.4
2014-Oct-23 01:25 336 1 gusting 1 9.4
2014-Oct-23 01:05 338 10.0
2014-Oct-23 00:55 348 2 gusting 2 9.4
2014-Oct-23 00:35 327 1 gusting 2 10.0
2014-Oct-23 00:15 288 2 gusting 2 10.0
2014-Oct-23 00:05 340 1 gusting 1 10.0
2014-Oct-22 23:45 341 1 gusting 1 10.0
2014-Oct-22 23:25 336 1 gusting 1 10.0
2014-Oct-22 23:15 248 0 gusting 0 10.6
2014-Oct-22 23:05 295 2 gusting 2 10.6